Terminal Aerodrome Forecast
Issued by NWS Hastings, NE

Home | Current Version | Previous Version | Text Only | Print | Product List | Glossary On
Versions: 1 2 3 4 5 6 7 8 9 10 11 12 13 14 15 16 17 18
858
FTUS45 KGID 200917 AAA
TAFEAR
TAF AMD
KEAR 200917Z 2009/2106 34009KT P6SM VCSH OVC008
      TEMPO 2009/2012 5SM BR OVC004
     FM201600 35011KT P6SM OVC008
     FM201900 36011KT P6SM BKN015
     FM202300 01007KT P6SM BKN025
     FM210400 VRB04KT P6SM BKN035=

USA.gov is the U.S. government's official web portal to all federal, state and local government web resources and services.